createdAt,value
2022-11-05T00:00:19.666Z,75.61
2022-11-05T00:04:39.982Z,75.61
2022-11-05T00:09:01.900Z,75.47
2022-11-05T00:13:23.636Z,75.59
2022-11-05T00:17:26.665Z,75.61
2022-11-05T00:21:47.262Z,75.77
2022-11-05T00:26:00.029Z,75.60
2022-11-05T00:30:03.085Z,75.68
2022-11-05T00:34:06.367Z,75.27
2022-11-05T00:38:09.375Z,75.28
2022-11-05T00:42:31.156Z,75.49
2022-11-05T00:46:34.365Z,75.31
2022-11-05T00:50:36.822Z,75.04
2022-11-05T00:54:39.843Z,75.25
2022-11-05T00:58:44.225Z,75.05
2022-11-05T01:02:47.823Z,74.81
2022-11-05T01:06:50.994Z,74.63
2022-11-05T01:10:56.122Z,74.54
2022-11-05T01:15:02.041Z,74.36
2022-11-05T01:19:07.096Z,74.43
2022-11-05T01:23:13.515Z,74.30
2022-11-05T01:27:17.176Z,74.18
2022-11-05T01:31:22.079Z,74.17
2022-11-05T01:35:25.319Z,74.13
2022-11-05T01:39:28.415Z,73.89
2022-11-05T01:43:47.874Z,73.96
2022-11-05T01:48:04.850Z,73.77
2022-11-05T01:52:07.871Z,73.63
2022-11-05T01:56:14.210Z,73.79
2022-11-05T02:00:17.777Z,74.06
2022-11-05T02:04:30.319Z,74.07
2022-11-05T02:08:47.796Z,73.81
2022-11-05T02:12:51.058Z,73.85
2022-11-05T02:17:00.340Z,73.78
2022-11-05T02:21:29.900Z,73.88
2022-11-05T02:26:02.356Z,73.74
2022-11-05T02:30:11.085Z,73.68
2022-11-05T02:34:25.878Z,73.80
2022-11-05T02:38:39.461Z,73.88
2022-11-05T02:42:47.088Z,74.10
2022-11-05T02:46:58.320Z,74.15
2022-11-05T02:51:10.210Z,73.74
2022-11-05T02:55:23.634Z,73.90
2022-11-05T02:59:26.619Z,73.87
2022-11-05T03:03:36.569Z,73.91
2022-11-05T03:07:48.977Z,74.16
2022-11-05T03:12:00.365Z,74.14
2022-11-05T03:16:11.277Z,74.17
2022-11-05T03:20:20.895Z,74.50
2022-11-05T03:24:30.430Z,74.40
2022-11-05T03:28:37.176Z,74.25
2022-11-05T03:32:42.968Z,74.22
2022-11-05T03:36:49.445Z,74.12
2022-11-05T03:40:58.659Z,74.49
2022-11-05T03:45:10.849Z,74.53
2022-11-05T03:49:20.362Z,74.58
2022-11-05T03:53:27.237Z,74.66
2022-11-05T03:57:36.595Z,74.78
2022-11-05T04:01:40.254Z,75.00
2022-11-05T04:05:43.619Z,74.82
2022-11-05T04:10:03.858Z,74.95
2022-11-05T04:14:08.490Z,74.92
2022-11-05T04:18:11.511Z,74.95
2022-11-05T04:22:31.767Z,75.10
2022-11-05T04:26:35.058Z,75.18
2022-11-05T04:30:39.502Z,75.39
2022-11-05T04:34:42.500Z,75.31
2022-11-05T04:38:45.528Z,75.50
2022-11-05T04:42:48.568Z,75.58
2022-11-05T04:46:52.966Z,75.84
2022-11-05T04:50:56.040Z,75.91
2022-11-05T04:54:59.210Z,76.00
2022-11-05T04:59:02.312Z,76.29
2022-11-05T05:03:06.987Z,76.49
2022-11-05T05:07:10.010Z,76.36
2022-11-05T05:11:15.175Z,76.40
2022-11-05T05:15:18.630Z,76.20
2022-11-05T05:19:24.769Z,76.45
2022-11-05T05:23:27.875Z,76.33
2022-11-05T05:27:31.604Z,76.02
2022-11-05T05:31:34.936Z,76.26
2022-11-05T05:35:39.337Z,76.25
2022-11-05T05:39:44.587Z,76.09
2022-11-05T05:43:48.949Z,75.95
2022-11-05T05:47:52.065Z,76.15
2022-11-05T05:51:56.770Z,76.47
2022-11-05T05:56:00.402Z,76.10
2022-11-05T06:00:03.422Z,75.98
2022-11-05T06:04:14.722Z,75.97
2022-11-05T06:08:19.132Z,76.20
2022-11-05T06:12:22.145Z,76.07
2022-11-05T06:16:25.294Z,76.08
2022-11-05T06:20:28.429Z,75.66
2022-11-05T06:24:32.931Z,76.01
2022-11-05T06:28:36.499Z,75.79
2022-11-05T06:32:39.526Z,75.81
2022-11-05T06:36:42.557Z,75.50
2022-11-05T06:40:47.430Z,75.64
2022-11-05T06:44:50.415Z,75.84
2022-11-05T06:48:53.475Z,75.87
2022-11-05T06:52:57.063Z,75.35
2022-11-05T06:57:01.479Z,75.65
2022-11-05T07:01:05.946Z,75.59
2022-11-05T07:05:11.177Z,75.24
2022-11-05T07:09:14.235Z,75.05
2022-11-05T07:13:18.807Z,75.25
2022-11-05T07:17:21.827Z,75.14
2022-11-05T07:21:24.901Z,75.34
2022-11-05T07:25:27.991Z,75.36
2022-11-05T07:29:32.441Z,75.16
2022-11-05T07:33:36.783Z,75.42
2022-11-05T07:37:44.401Z,75.41
2022-11-05T07:41:47.516Z,75.05
2022-11-05T07:45:51.923Z,75.22
2022-11-05T07:49:54.929Z,75.21
2022-11-05T07:53:57.931Z,75.28
2022-11-05T07:58:00.976Z,75.34
2022-11-05T08:02:05.546Z,75.08
2022-11-05T08:06:08.831Z,74.77
2022-11-05T08:10:12.069Z,74.94
2022-11-05T08:14:15.107Z,74.86
2022-11-05T08:18:19.705Z,74.64
2022-11-05T08:22:22.858Z,74.62
2022-11-05T08:26:25.883Z,74.79
2022-11-05T08:30:29.933Z,74.63
2022-11-05T08:34:34.334Z,74.61
2022-11-05T08:38:37.351Z,74.98
2022-11-05T08:42:40.408Z,74.59
2022-11-05T08:46:43.393Z,74.67
2022-11-05T08:50:49.129Z,74.58
2022-11-05T08:54:52.175Z,74.59
2022-11-05T08:58:55.184Z,74.60
2022-11-05T09:03:00.178Z,74.81
2022-11-05T09:07:04.652Z,74.31
2022-11-05T09:11:07.667Z,74.42
2022-11-05T09:15:12.740Z,74.47
2022-11-05T09:19:15.851Z,74.52
2022-11-05T09:23:20.468Z,74.05
2022-11-05T09:27:23.510Z,74.38
2022-11-05T09:31:26.562Z,73.99
2022-11-05T09:35:29.553Z,73.42
2022-11-05T09:39:34.004Z,73.69
2022-11-05T09:43:41.664Z,73.61
2022-11-05T09:47:49.192Z,73.74
2022-11-05T09:51:53.683Z,73.69
2022-11-05T09:56:00.027Z,73.38
2022-11-05T10:00:05.813Z,73.28
2022-11-05T10:08:55.746Z,72.58
2022-11-05T10:13:02.785Z,72.57
2022-11-05T10:17:13.285Z,72.97
2022-11-05T10:21:32.293Z,71.95
2022-11-05T10:25:44.986Z,71.38
2022-11-05T10:29:50.561Z,71.04
2022-11-05T10:34:01.745Z,70.98
2022-11-05T10:38:04.776Z,70.93
2022-11-05T10:42:28.818Z,71.21
2022-11-05T10:46:39.784Z,70.60
2022-11-05T10:50:45.293Z,71.69
2022-11-05T10:54:49.962Z,71.24
2022-11-05T10:58:56.307Z,70.48
2022-11-05T11:03:03.365Z,70.29
2022-11-05T11:07:06.998Z,70.09
2022-11-05T11:11:14.256Z,70.19
2022-11-05T11:15:24.349Z,70.00
2022-11-05T11:19:33.444Z,69.65
2022-11-05T11:23:39.062Z,69.41
2022-11-05T11:27:42.445Z,69.63
2022-11-05T11:31:45.943Z,70.11
2022-11-05T11:35:50.933Z,69.86
2022-11-05T11:39:57.141Z,69.16
2022-11-05T11:44:04.948Z,69.26
2022-11-05T11:48:13.625Z,69.61
2022-11-05T13:08:34.828Z,71.69
2022-11-05T13:12:40.792Z,71.37
2022-11-05T13:16:47.099Z,70.85
2022-11-05T13:20:53.498Z,70.26
2022-11-05T13:25:00.999Z,70.27
2022-11-05T13:29:06.882Z,69.37
2022-11-05T13:33:16.399Z,69.01
2022-11-05T13:37:43.753Z,69.19
2022-11-05T13:42:02.137Z,69.11
2022-11-05T13:46:19.405Z,68.86
2022-11-05T13:50:45.943Z,69.37
2022-11-05T13:55:22.709Z,69.08
2022-11-05T13:59:56.064Z,69.41
2022-11-05T14:03:59.113Z,69.52
2022-11-05T14:08:09.256Z,69.56
2022-11-05T14:12:22.853Z,69.22
2022-11-05T14:16:30.437Z,69.73
2022-11-05T14:20:59.184Z,69.31
2022-11-05T14:25:03.783Z,69.01
2022-11-05T14:29:24.136Z,69.35
2022-11-05T14:33:39.741Z,68.55
2022-11-05T14:37:43.556Z,68.26
2022-11-05T14:41:55.070Z,68.30
2022-11-05T14:46:01.351Z,67.47
2022-11-05T14:50:12.058Z,66.88
2022-11-05T14:54:22.608Z,67.91
2022-11-05T14:58:32.021Z,67.39
2022-11-05T15:02:38.611Z,67.08
2022-11-05T15:07:30.514Z,67.21
2022-11-05T15:11:39.937Z,66.64
2022-11-05T15:15:45.653Z,66.28
2022-11-05T15:19:49.234Z,66.10
2022-11-05T15:23:57.455Z,66.78
2022-11-05T15:28:06.392Z,66.37
2022-11-05T15:32:17.444Z,66.63
2022-11-05T15:36:25.304Z,66.88
2022-11-05T15:40:31.660Z,66.47
2022-11-05T15:44:40.399Z,66.78
2022-11-05T15:48:47.262Z,66.93
2022-11-05T15:52:52.107Z,67.09
2022-11-05T15:56:58.433Z,67.12
2022-11-05T16:01:01.463Z,67.07
2022-11-05T16:05:12.529Z,67.53
2022-11-05T16:09:28.197Z,67.55
2022-11-05T16:13:37.706Z,67.47
2022-11-05T16:17:48.459Z,67.58
2022-11-05T16:21:55.586Z,67.42
2022-11-05T16:26:00.005Z,67.44
2022-11-05T16:30:04.637Z,67.76
2022-11-05T16:34:08.022Z,67.41
2022-11-05T16:38:14.074Z,67.66
2022-11-05T16:42:39.047Z,67.37
2022-11-05T16:46:45.819Z,67.51
2022-11-05T16:50:48.757Z,67.66
2022-11-05T16:54:51.870Z,67.78
2022-11-05T16:58:54.866Z,68.23
2022-11-05T17:02:59.513Z,67.59
2022-11-05T17:07:02.416Z,68.03
2022-11-05T17:11:05.748Z,68.25
2022-11-05T17:15:23.611Z,67.79
2022-11-05T17:19:28.271Z,68.04
2022-11-05T17:23:32.710Z,68.22
2022-11-05T17:27:36.016Z,68.42
2022-11-05T17:31:40.527Z,68.52
2022-11-05T17:35:45.028Z,68.27
2022-11-05T17:39:47.943Z,68.36
2022-11-05T17:43:55.538Z,68.93
2022-11-05T17:47:58.706Z,68.83
2022-11-05T17:52:03.037Z,68.83
2022-11-05T17:56:09.732Z,68.75
2022-11-05T18:00:14.935Z,68.49
2022-11-05T18:04:18.399Z,68.92
2022-11-05T18:08:22.745Z,69.22
2022-11-05T18:12:25.654Z,68.94
2022-11-05T18:16:29.390Z,68.80
2022-11-05T18:20:32.649Z,68.93
2022-11-05T18:24:37.000Z,69.14
2022-11-05T18:28:40.181Z,68.95
2022-11-05T18:32:43.423Z,68.88
2022-11-05T18:36:49.828Z,69.10
2022-11-05T18:41:07.347Z,69.17
2022-11-05T18:45:11.382Z,69.30
2022-11-05T18:49:14.284Z,69.07
2022-11-05T18:53:17.227Z,69.23
2022-11-05T18:57:21.858Z,68.79
2022-11-05T19:01:27.402Z,68.88
2022-11-05T19:05:31.176Z,68.83
2022-11-05T19:09:34.869Z,68.78
2022-11-05T19:13:39.597Z,68.58
2022-11-05T19:17:42.724Z,68.48
2022-11-05T19:21:45.717Z,68.79
2022-11-05T19:25:48.633Z,68.77
2022-11-05T19:29:53.470Z,68.53
2022-11-05T19:33:56.954Z,68.56
2022-11-05T19:38:00.103Z,68.75
2022-11-05T19:42:03.941Z,68.81
2022-11-05T19:46:10.083Z,68.66
2022-11-05T19:50:13.075Z,68.88
2022-11-05T19:54:16.216Z,68.91
2022-11-05T19:58:19.120Z,69.00
2022-11-05T20:02:23.549Z,69.20
2022-11-05T20:06:31.835Z,69.24
2022-11-05T20:10:38.026Z,69.38
2022-11-05T20:14:41.015Z,69.18
2022-11-05T20:18:45.357Z,69.29
2022-11-05T20:22:48.534Z,69.78
2022-11-05T20:26:51.580Z,69.67
2022-11-05T20:30:57.298Z,69.53
2022-11-05T20:35:01.614Z,69.79
2022-11-05T20:39:06.628Z,69.55
2022-11-05T20:43:09.542Z,69.77
2022-11-05T20:47:12.480Z,70.27
2022-11-05T20:51:18.670Z,70.52
2022-11-05T20:55:21.556Z,70.46
2022-11-05T20:59:24.938Z,70.64
2022-11-05T21:03:28.393Z,70.83
2022-11-05T21:07:33.227Z,71.00
2022-11-05T21:11:50.624Z,71.12
2022-11-05T21:15:55.476Z,71.03
2022-11-05T21:19:58.455Z,71.30
2022-11-05T21:24:02.974Z,71.21
2022-11-05T21:28:07.249Z,71.41
2022-11-05T21:32:10.781Z,71.69
2022-11-05T21:36:14.607Z,71.63
2022-11-05T21:40:19.050Z,71.78
2022-11-05T21:44:22.062Z,72.17
2022-11-05T21:48:24.997Z,71.67
2022-11-05T21:52:45.235Z,72.19
2022-11-05T21:57:10.818Z,72.11
2022-11-05T22:01:14.031Z,72.30
2022-11-05T22:05:16.998Z,72.35
2022-11-05T22:09:19.912Z,72.68
2022-11-05T22:13:24.197Z,72.52
2022-11-05T22:17:27.352Z,72.57
2022-11-05T22:21:30.326Z,72.83
2022-11-05T22:25:33.433Z,72.66
2022-11-05T22:29:38.483Z,72.38
2022-11-05T22:33:41.517Z,72.73
2022-11-05T22:37:44.432Z,72.91
2022-11-05T22:41:47.754Z,73.10
2022-11-05T22:45:52.306Z,72.95
2022-11-05T22:49:55.254Z,73.29
2022-11-05T22:53:58.777Z,73.22
2022-11-05T22:58:02.070Z,73.31
2022-11-05T23:02:09.836Z,73.48
2022-11-05T23:06:33.081Z,73.52
2022-11-05T23:10:56.321Z,73.55
2022-11-05T23:15:01.498Z,73.85
2022-11-05T23:19:23.047Z,73.90
2022-11-05T23:23:43.174Z,74.12
2022-11-05T23:27:47.633Z,73.93
2022-11-05T23:32:08.088Z,74.34
2022-11-05T23:36:32.110Z,74.26
2022-11-05T23:40:55.077Z,74.59
2022-11-05T23:45:15.387Z,74.43
2022-11-05T23:49:18.592Z,74.96
2022-11-05T23:53:23.711Z,74.88
2022-11-05T23:57:26.675Z,74.99
